Afrodite — CURM3 — position and weather

sailwx.info

Track history (hours):
 
Tides and Currents Weather Stations Pressure Air Temp Water Temp Dewpoint Dewpoint Depression Visibility Wind Speed Wind Dir Waves Ship Positions

Afrodite

Last reported at 2016-Apr-27 17:10 UTC. Time now 2016-Apr-30 05:18 UTC.
Position N 39°01' W 009°27'.

Length 26 m.

Type: Fishing. MMSI: 263500170.

Date/timePositionNaut miles runAvg speedWind from/ knotsBaromVisibWave heightAir tempDewpointWater temp
2016-Apr-27 17:10N 39°01' W 009°27'4 7.2
2016-Apr-27 16:33N 38°57' W 009°26'3 3.4
2016-Apr-27 15:33N 38°54' W 009°27'4 4.2
2016-Apr-27 14:33N 38°58' W 009°27'30 1.3
2016-Apr-26 14:31N 39°28' W 009°30'  
2016-Apr-22 15:33N 39°21' W 009°22'0 0.0
2016-Apr-22 14:33N 39°21' W 009°22'1 0.0
2016-Apr-21 13:12N 39°21' W 009°23'1 0.9
2016-Apr-21 12:33N 39°21' W 009°22'0 0.0
2016-Apr-20 18:24N 39°21' W 009°22'0 0.0
2016-Apr-19 18:21N 39°21' W 009°22'0 0.0
2016-Apr-18 13:33N 39°21' W 009°22'0 0.0
2016-Apr-18 12:33N 39°21' W 009°22'  
Track history (hours):
 
Tides and Currents Weather Stations Pressure Air Temp Water Temp Dewpoint Dewpoint Depression Visibility Wind Speed Wind Dir Waves Ship Positions

Afrodite

Last reported at 2016-Apr-27 17:10 UTC. Time now 2016-Apr-30 05:18 UTC.
Position N 39°01' W 009°27'.

Length 26 m.

Type: Fishing. MMSI: 263500170.

Date/timePositionNaut miles runAvg speedWind from/ knotsBaromVisibWave heightAir tempDewpointWater temp
2016-Apr-27 17:10N 39°01' W 009°27'4 7.2
2016-Apr-27 16:33N 38°57' W 009°26'3 3.4
2016-Apr-27 15:33N 38°54' W 009°27'4 4.2
2016-Apr-27 14:33N 38°58' W 009°27'30 1.3
2016-Apr-26 14:31N 39°28' W 009°30'  
2016-Apr-22 15:33N 39°21' W 009°22'0 0.0
2016-Apr-22 14:33N 39°21' W 009°22'1 0.0
2016-Apr-21 13:12N 39°21' W 009°23'1 0.9
2016-Apr-21 12:33N 39°21' W 009°22'0 0.0
2016-Apr-20 18:24N 39°21' W 009°22'0 0.0
2016-Apr-19 18:21N 39°21' W 009°22'0 0.0
2016-Apr-18 13:33N 39°21' W 009°22'0 0.0
2016-Apr-18 12:33N 39°21' W 009°22'  

Dump ship's entire track history